Weather at Marana Regional Airport

Public forecast

Using degrees Fahrenheit for public forecast. Weather courtesy of forecast.io.

Current aviation weather report (METAR) for Marana Regional Airport

Retrieved 2022/08/14 07:15 UTC (52 seconds ago):

KAVQ 140715Z AUTO 21006KT 10SM SCT070 27/17 A3002 RMK AO2 T02730172

Closest aviation forecast (TAF) to Marana Regional Airport

Closest forecast is Davis Monthan Air Force Base, 22.3 nm (41.3 km) SE. Retrieved 2022/08/14 06:21 UTC (55 minutes ago):

TAF KDMA 140600Z 1406/1512 12009KT 9999 BKN100 OVC180 QNH3004INS BECMG 1416/1417 28009KT 9999 SCT090 QNH2996INS BECMG 1421/1422 30012KT 9999 VCSH BKN070 BKN100 QNH2996INS TEMPO 1423/1503 VRB15G25KT 9000 -TSRA BKN060CB OVC090 BECMG 1503/1504 VRB06KT 9999 NSW BKN080 BKN160 QNH2999INS BECMG 1505/1506 12009KT 9999 BKN100 BKN180 QNH3002INS TX33/1422Z TN23/1413Z